createdAt,value
2022-12-20T00:01:45.505Z,82.37
2022-12-20T00:04:14.843Z,82.57
2022-12-20T00:06:44.421Z,82.25
2022-12-20T00:09:14.472Z,81.83
2022-12-20T00:11:43.780Z,81.59
2022-12-20T00:14:13.244Z,81.66
2022-12-20T00:16:43.020Z,81.52
2022-12-20T00:19:13.026Z,81.13
2022-12-20T00:21:42.505Z,81.14
2022-12-20T00:24:12.397Z,80.91
2022-12-20T00:26:41.601Z,80.41
2022-12-20T00:29:11.637Z,80.42
2022-12-20T00:31:41.602Z,80.00
2022-12-20T00:34:11.325Z,79.30
2022-12-20T00:36:41.241Z,78.83
2022-12-20T00:39:11.418Z,78.71
2022-12-20T00:41:40.679Z,78.43
2022-12-20T00:44:10.011Z,79.27
2022-12-20T00:46:39.248Z,80.06
2022-12-20T00:49:10.234Z,81.29
2022-12-20T00:51:39.451Z,83.05
2022-12-20T00:54:08.959Z,84.39
2022-12-20T00:56:38.152Z,85.17
2022-12-20T00:59:07.906Z,85.99
2022-12-20T01:01:37.209Z,86.87
2022-12-20T01:04:06.771Z,87.47
2022-12-20T01:06:37.325Z,87.49
2022-12-20T01:09:06.949Z,87.58
2022-12-20T01:11:37.687Z,87.80
2022-12-20T01:14:13.325Z,88.28
2022-12-20T01:16:45.105Z,88.48
2022-12-20T01:19:18.391Z,89.00
2022-12-20T01:21:47.780Z,89.40
2022-12-20T01:24:18.876Z,89.73
2022-12-20T01:26:49.013Z,90.00
2022-12-20T01:29:20.230Z,90.72
2022-12-20T01:31:49.926Z,90.97
2022-12-20T01:34:19.569Z,91.16
2022-12-20T01:36:49.639Z,91.48
2022-12-20T01:39:19.223Z,91.38
2022-12-20T01:41:48.400Z,91.82
2022-12-20T01:44:23.646Z,92.24
2022-12-20T01:46:53.898Z,92.37
2022-12-20T01:49:29.441Z,92.64
2022-12-20T01:52:01.447Z,92.69
2022-12-20T01:54:36.841Z,92.64
2022-12-20T01:57:12.532Z,92.75
2022-12-20T01:59:43.290Z,92.85
2022-12-20T02:02:14.165Z,92.83
2022-12-20T02:04:44.012Z,92.73
2022-12-20T02:07:17.373Z,92.56
2022-12-20T02:09:47.183Z,92.68
2022-12-20T02:12:18.602Z,92.57
2022-12-20T02:15:11.010Z,92.39
2022-12-20T02:17:58.885Z,92.37
2022-12-20T02:20:46.890Z,92.13
2022-12-20T02:23:35.846Z,91.90
2022-12-20T02:26:27.024Z,91.33
2022-12-20T02:29:11.710Z,91.31
2022-12-20T02:31:47.268Z,91.10
2022-12-20T02:34:17.537Z,90.48
2022-12-20T02:36:46.809Z,90.79
2022-12-20T02:39:16.710Z,90.83
2022-12-20T02:41:58.275Z,90.39
2022-12-20T02:44:47.976Z,89.84
2022-12-20T02:47:20.312Z,89.19
2022-12-20T02:49:51.480Z,89.41
2022-12-20T02:52:22.365Z,89.00
2022-12-20T02:54:51.786Z,89.08
2022-12-20T02:57:40.724Z,88.83
2022-12-20T03:00:13.438Z,88.42
2022-12-20T03:03:00.371Z,88.47
2022-12-20T03:05:29.897Z,88.24
2022-12-20T03:07:59.700Z,87.69
2022-12-20T03:10:29.354Z,87.10
2022-12-20T03:12:58.567Z,87.08
2022-12-20T03:15:29.652Z,87.05
2022-12-20T03:18:00.331Z,86.69
2022-12-20T03:20:30.236Z,86.55
2022-12-20T03:22:59.510Z,87.07
2022-12-20T03:25:29.112Z,86.55
2022-12-20T03:27:59.183Z,86.67
2022-12-20T03:30:29.324Z,86.71
2022-12-20T03:32:59.175Z,86.34
2022-12-20T03:35:28.817Z,86.17
2022-12-20T03:37:58.030Z,86.22
2022-12-20T03:40:27.799Z,85.90
2022-12-20T03:42:57.105Z,85.71
2022-12-20T03:45:26.567Z,85.62
2022-12-20T03:47:55.793Z,85.82
2022-12-20T03:50:26.668Z,85.74
2022-12-20T03:52:56.262Z,85.99
2022-12-20T03:55:25.785Z,85.90
2022-12-20T03:57:55.212Z,86.08
2022-12-20T04:00:26.415Z,86.08
2022-12-20T04:02:56.995Z,85.92
2022-12-20T04:05:26.851Z,86.12
2022-12-20T04:07:56.166Z,85.96
2022-12-20T04:10:25.542Z,86.13
2022-12-20T04:12:55.117Z,86.27
2022-12-20T04:15:24.938Z,86.10
2022-12-20T04:17:55.664Z,87.56
2022-12-20T04:20:26.846Z,88.52
2022-12-20T04:22:57.862Z,89.67
2022-12-20T04:25:27.494Z,89.83
2022-12-20T04:27:56.915Z,91.07
2022-12-20T04:30:26.175Z,91.71
2022-12-20T04:32:55.921Z,92.00
2022-12-20T04:35:26.297Z,92.30
2022-12-20T04:37:55.980Z,92.20
2022-12-20T04:40:25.195Z,92.40
2022-12-20T04:42:56.265Z,92.75
2022-12-20T04:45:26.098Z,93.02
2022-12-20T04:47:55.876Z,92.94
2022-12-20T04:50:26.949Z,92.96
2022-12-20T04:53:14.059Z,93.49
2022-12-20T04:55:44.145Z,93.52
2022-12-20T04:58:13.346Z,93.38
2022-12-20T05:00:43.269Z,93.34
2022-12-20T05:03:14.453Z,93.66
2022-12-20T05:05:43.963Z,93.95
2022-12-20T05:08:13.454Z,94.17
2022-12-20T05:10:43.470Z,94.07
2022-12-20T05:13:13.124Z,94.03
2022-12-20T05:15:44.800Z,93.73
2022-12-20T05:18:14.258Z,93.44
2022-12-20T05:20:45.418Z,93.15
2022-12-20T05:23:32.947Z,92.71
2022-12-20T05:26:19.030Z,92.38
2022-12-20T05:28:48.602Z,91.95
2022-12-20T05:31:18.226Z,91.71
2022-12-20T05:33:47.839Z,91.72
2022-12-20T05:36:18.367Z,91.42
2022-12-20T05:38:48.419Z,91.18
2022-12-20T05:41:19.899Z,90.97
2022-12-20T05:43:50.874Z,89.92
2022-12-20T05:46:20.374Z,89.60
2022-12-20T05:48:51.757Z,89.77
2022-12-20T05:51:21.233Z,89.13
2022-12-20T05:53:55.347Z,89.16
2022-12-20T05:56:26.274Z,89.37
2022-12-20T05:58:55.597Z,88.64
2022-12-20T06:01:25.135Z,88.38
2022-12-20T06:03:56.739Z,88.55
2022-12-20T06:06:26.271Z,88.39
2022-12-20T06:08:56.313Z,87.99
2022-12-20T06:11:30.201Z,88.16
2022-12-20T06:13:59.710Z,87.65
2022-12-20T06:16:29.246Z,87.53
2022-12-20T06:18:59.127Z,87.62
2022-12-20T06:21:28.632Z,87.30
2022-12-20T06:23:59.698Z,86.83
2022-12-20T06:26:30.851Z,86.99
2022-12-20T06:29:02.212Z,86.77
2022-12-20T06:31:33.572Z,87.04
2022-12-20T06:34:03.163Z,86.90
2022-12-20T06:36:34.052Z,86.75
2022-12-20T06:39:09.499Z,86.81
2022-12-20T06:41:35.602Z,86.54
2022-12-20T06:44:05.895Z,86.55
2022-12-20T06:46:35.894Z,86.82
2022-12-20T06:49:06.302Z,86.07
2022-12-20T06:51:35.570Z,85.84
2022-12-20T06:54:06.053Z,85.95
2022-12-20T06:56:41.286Z,86.11
2022-12-20T06:59:08.720Z,85.99
2022-12-20T07:01:38.082Z,85.53
2022-12-20T07:04:07.594Z,85.22
2022-12-20T07:06:36.789Z,85.44
2022-12-20T07:09:06.584Z,85.36
2022-12-20T07:11:35.840Z,85.45
2022-12-20T07:14:06.611Z,84.84
2022-12-20T07:16:36.401Z,85.11
2022-12-20T07:19:06.197Z,85.38
2022-12-20T07:21:35.457Z,85.23
2022-12-20T07:24:06.026Z,85.11
2022-12-20T07:26:35.421Z,85.05
2022-12-20T07:29:10.445Z,85.40
2022-12-20T07:31:37.558Z,85.68
2022-12-20T07:34:07.054Z,85.66
2022-12-20T07:36:36.252Z,85.39
2022-12-20T07:39:07.296Z,85.56
2022-12-20T07:41:36.505Z,86.16
2022-12-20T07:44:06.920Z,85.98
2022-12-20T07:46:36.153Z,85.64
2022-12-20T07:49:06.290Z,86.19
2022-12-20T07:51:41.231Z,85.80
2022-12-20T07:54:22.325Z,85.55
2022-12-20T07:56:54.338Z,85.31
2022-12-20T07:59:26.534Z,85.74
2022-12-20T08:02:00.719Z,85.80
2022-12-20T08:04:29.077Z,85.86
2022-12-20T08:06:59.955Z,85.35
2022-12-20T08:09:35.357Z,85.01
2022-12-20T08:12:06.431Z,85.26
2022-12-20T08:14:36.145Z,84.41
2022-12-20T08:17:05.409Z,85.71
2022-12-20T08:19:34.891Z,85.48
2022-12-20T08:22:04.390Z,86.32
2022-12-20T08:24:35.037Z,86.41
2022-12-20T08:27:04.319Z,87.84
2022-12-20T08:29:33.976Z,88.69
2022-12-20T08:32:03.151Z,88.52
2022-12-20T08:34:32.875Z,89.25
2022-12-20T08:37:02.075Z,89.82
2022-12-20T08:39:31.835Z,89.89
2022-12-20T08:42:01.484Z,90.31
2022-12-20T08:44:30.915Z,90.63
2022-12-20T08:47:00.684Z,91.13
2022-12-20T08:49:30.094Z,91.51
2022-12-20T08:51:59.385Z,91.88
2022-12-20T08:54:28.993Z,92.67
2022-12-20T08:56:58.376Z,92.80
2022-12-20T08:59:28.015Z,93.02
2022-12-20T09:01:57.337Z,93.09
2022-12-20T09:04:27.080Z,93.38
2022-12-20T09:06:56.327Z,93.18
2022-12-20T09:09:25.772Z,93.41
2022-12-20T09:11:55.560Z,93.37
2022-12-20T09:14:25.398Z,93.68
2022-12-20T09:16:54.628Z,93.54
2022-12-20T09:19:23.845Z,93.51
2022-12-20T09:21:53.348Z,93.46
2022-12-20T09:24:23.137Z,93.68
2022-12-20T09:26:52.445Z,93.75
2022-12-20T09:29:28.135Z,93.79
2022-12-20T09:31:52.916Z,94.05
2022-12-20T09:34:22.683Z,93.98
2022-12-20T09:36:52.090Z,94.11
2022-12-20T09:39:21.403Z,94.26
2022-12-20T09:41:51.378Z,94.14
2022-12-20T09:44:25.847Z,94.00
2022-12-20T09:46:58.419Z,94.26
2022-12-20T09:49:28.697Z,94.27
2022-12-20T09:52:06.993Z,94.33
2022-12-20T09:54:57.586Z,94.25
2022-12-20T09:57:59.815Z,94.43
2022-12-20T10:00:30.263Z,94.51
2022-12-20T10:03:08.714Z,94.60
2022-12-20T10:05:55.015Z,94.36
2022-12-20T10:08:51.056Z,94.42
2022-12-20T10:11:50.940Z,94.56
2022-12-20T10:14:29.652Z,94.97
2022-12-20T10:17:32.729Z,95.00
2022-12-20T10:20:03.480Z,95.04
2022-12-20T10:22:38.907Z,95.16
2022-12-20T10:25:20.340Z,95.31
2022-12-20T10:27:51.057Z,94.93
2022-12-20T10:30:22.587Z,94.96
2022-12-20T10:32:54.239Z,94.94
2022-12-20T10:35:31.828Z,95.12
2022-12-20T10:38:08.404Z,95.35
2022-12-20T10:43:20.769Z,95.57
2022-12-20T10:45:58.953Z,95.53
2022-12-20T10:48:36.059Z,95.52
2022-12-20T10:51:16.641Z,95.50
2022-12-20T10:53:59.603Z,95.35
2022-12-20T10:56:34.226Z,95.49
2022-12-20T10:59:18.529Z,95.44
2022-12-20T11:01:49.225Z,95.42
2022-12-20T11:04:33.297Z,95.25
2022-12-20T11:07:05.679Z,95.23
2022-12-20T11:09:37.419Z,95.38
2022-12-20T11:12:17.341Z,95.71
2022-12-20T11:14:49.102Z,95.53
2022-12-20T11:17:24.551Z,95.57
2022-12-20T11:20:02.782Z,95.79
2022-12-20T11:22:51.699Z,95.84
2022-12-20T11:25:36.041Z,95.81
2022-12-20T11:28:24.871Z,95.77
2022-12-20T11:31:00.502Z,95.57
2022-12-20T11:33:55.670Z,95.83
2022-12-20T11:36:43.438Z,95.63
2022-12-20T11:39:24.737Z,95.83
2022-12-20T11:42:30.099Z,95.74
2022-12-20T11:45:09.212Z,95.68
2022-12-20T11:48:01.026Z,96.07
2022-12-20T11:50:54.262Z,96.07
2022-12-20T11:53:38.496Z,96.17
2022-12-20T11:56:13.852Z,96.36
2022-12-20T11:58:48.877Z,96.15
2022-12-20T12:01:24.545Z,96.41
2022-12-20T12:04:00.384Z,96.47
2022-12-20T12:06:39.306Z,96.18
2022-12-20T12:09:11.699Z,96.06
2022-12-20T12:14:20.889Z,96.37
2022-12-20T12:16:52.508Z,96.50
2022-12-20T12:19:22.585Z,96.55
2022-12-20T12:21:57.737Z,96.46
2022-12-20T12:24:36.216Z,96.42
2022-12-20T12:27:09.834Z,96.31
2022-12-20T12:29:37.064Z,96.46
2022-12-20T12:32:10.118Z,96.63
2022-12-20T12:34:58.990Z,96.52
2022-12-20T12:37:52.520Z,96.56
2022-12-20T12:40:59.689Z,96.41
2022-12-20T12:43:46.424Z,96.48
2022-12-20T12:46:22.274Z,96.50
2022-12-20T12:49:03.282Z,96.36
2022-12-20T12:51:38.871Z,96.74
2022-12-20T12:54:20.119Z,96.79
2022-12-20T12:56:50.854Z,96.69
2022-12-20T12:59:37.831Z,96.58
2022-12-20T13:02:21.198Z,97.04
2022-12-20T13:05:13.556Z,97.13
2022-12-20T13:07:44.554Z,97.25
2022-12-20T13:10:20.473Z,97.33
2022-12-20T13:12:53.143Z,97.36
2022-12-20T13:15:23.451Z,97.35
2022-12-20T13:18:03.292Z,97.20
2022-12-20T13:20:34.788Z,97.04
2022-12-20T13:23:13.054Z,97.02
2022-12-20T13:25:44.465Z,97.17
2022-12-20T13:28:29.194Z,97.12
2022-12-20T13:31:07.716Z,96.73
2022-12-20T13:33:42.918Z,96.93
2022-12-20T13:36:15.335Z,96.69
2022-12-20T13:38:58.896Z,96.83
2022-12-20T13:41:42.610Z,96.86
2022-12-20T13:44:27.521Z,97.02
2022-12-20T13:47:08.746Z,97.07
2022-12-20T13:49:40.214Z,97.11
2022-12-20T13:52:27.192Z,97.25
2022-12-20T13:54:58.837Z,97.06
2022-12-20T13:57:42.032Z,97.29
2022-12-20T14:00:28.454Z,97.10
2022-12-20T14:02:58.134Z,97.14
2022-12-20T14:05:30.302Z,97.18
2022-12-20T14:08:11.627Z,97.37
2022-12-20T14:10:40.964Z,97.36
2022-12-20T14:13:29.275Z,97.35
2022-12-20T14:16:01.664Z,97.41
2022-12-20T14:18:31.206Z,97.40
2022-12-20T14:21:03.697Z,97.30
2022-12-20T14:23:39.231Z,97.38
2022-12-20T14:26:11.622Z,97.16
2022-12-20T14:28:46.707Z,97.09
2022-12-20T14:31:39.538Z,97.30
2022-12-20T14:34:14.720Z,97.14
2022-12-20T14:36:48.895Z,97.15
2022-12-20T14:39:32.704Z,97.14
2022-12-20T14:42:04.119Z,97.27
2022-12-20T14:44:34.245Z,97.23
2022-12-20T14:47:25.070Z,97.21
2022-12-20T14:50:00.239Z,97.15
2022-12-20T14:52:38.103Z,97.19
2022-12-20T14:55:13.945Z,97.27
2022-12-20T14:57:52.025Z,97.15
2022-12-20T15:00:24.784Z,97.08
2022-12-20T15:03:00.098Z,97.15
2022-12-20T15:05:38.966Z,96.98
2022-12-20T15:08:32.213Z,97.01
2022-12-20T15:11:13.791Z,96.99
2022-12-20T15:13:50.392Z,97.09
2022-12-20T15:16:25.542Z,96.99
2022-12-20T15:18:57.372Z,97.13
2022-12-20T15:21:37.380Z,97.15
2022-12-20T15:24:10.319Z,97.33
2022-12-20T15:26:38.835Z,97.62
2022-12-20T15:29:08.456Z,97.63
2022-12-20T15:31:38.020Z,97.70
2022-12-20T15:34:22.618Z,97.90
2022-12-20T15:36:51.812Z,97.99
2022-12-20T15:39:21.826Z,97.98
2022-12-20T15:41:51.360Z,98.13
2022-12-20T15:44:25.247Z,98.09
2022-12-20T15:46:54.714Z,98.23
2022-12-20T15:49:27.613Z,98.11
2022-12-20T15:51:57.280Z,98.23
2022-12-20T15:54:29.659Z,98.24
2022-12-20T15:57:02.205Z,98.31
2022-12-20T15:59:59.090Z,98.19
2022-12-20T16:02:03.607Z,98.27
2022-12-20T16:04:33.198Z,98.42
2022-12-20T16:07:05.199Z,98.50
2022-12-20T16:09:33.337Z,98.63
2022-12-20T16:12:03.583Z,98.63
2022-12-20T16:14:33.191Z,98.64
2022-12-20T16:17:02.450Z,98.72
2022-12-20T16:19:31.966Z,98.84
2022-12-20T16:22:01.421Z,98.95
2022-12-20T16:24:30.720Z,98.96
2022-12-20T16:27:00.012Z,99.03
2022-12-20T16:29:29.232Z,98.95
2022-12-20T16:31:58.821Z,98.95
2022-12-20T16:34:28.141Z,99.04
2022-12-20T16:36:57.629Z,98.96
2022-12-20T16:39:26.852Z,99.00
2022-12-20T16:41:56.568Z,99.05
2022-12-20T16:44:25.807Z,99.01
2022-12-20T16:46:55.498Z,99.11
2022-12-20T16:49:25.169Z,99.12
2022-12-20T16:51:54.581Z,99.11
2022-12-20T16:54:24.529Z,99.05
2022-12-20T16:56:55.155Z,99.11
2022-12-20T16:59:25.436Z,99.11
2022-12-20T17:01:57.564Z,99.19
2022-12-20T17:04:27.260Z,99.28
2022-12-20T17:06:56.896Z,99.36
2022-12-20T17:09:26.458Z,99.37
2022-12-20T17:11:55.994Z,99.34
2022-12-20T17:14:25.226Z,99.31
2022-12-20T17:16:54.609Z,99.29
2022-12-20T17:19:23.847Z,99.28
2022-12-20T17:24:40.813Z,99.20
2022-12-20T17:27:12.268Z,99.17
2022-12-20T17:29:41.486Z,99.17
2022-12-20T17:32:17.346Z,99.20
2022-12-20T17:34:46.664Z,99.25
2022-12-20T17:37:17.478Z,99.34
2022-12-20T17:39:46.877Z,99.38
2022-12-20T17:42:16.690Z,99.44
2022-12-20T17:44:49.080Z,99.50
2022-12-20T17:47:18.438Z,99.51
2022-12-20T17:49:48.190Z,99.54
2022-12-20T17:52:17.598Z,99.55
2022-12-20T17:54:47.221Z,99.58
2022-12-20T17:57:17.490Z,99.57
2022-12-20T17:59:46.939Z,99.56
2022-12-20T18:02:22.000Z,99.55
2022-12-20T18:04:52.353Z,99.60
2022-12-20T18:07:21.623Z,99.59
2022-12-20T18:09:51.326Z,99.49
2022-12-20T18:12:22.349Z,99.55
2022-12-20T18:14:51.622Z,99.59
2022-12-20T18:17:20.875Z,99.65
2022-12-20T18:19:52.053Z,99.70
2022-12-20T18:22:21.347Z,99.75
2022-12-20T18:24:50.960Z,99.86
2022-12-20T18:27:23.826Z,99.88
2022-12-20T18:29:51.378Z,99.89
2022-12-20T18:32:20.695Z,99.93
2022-12-20T18:34:50.186Z,99.95
2022-12-20T18:37:19.443Z,100.00
2022-12-20T18:39:48.957Z,100.00
2022-12-20T18:42:18.459Z,100.00
2022-12-20T18:44:48.038Z,100.00
2022-12-20T18:47:17.364Z,100.00
2022-12-20T18:49:46.832Z,100.00
2022-12-20T18:52:16.098Z,100.00
2022-12-20T18:54:45.484Z,100.00
2022-12-20T18:57:14.803Z,100.00
2022-12-20T18:59:44.384Z,100.00
2022-12-20T19:02:15.061Z,100.00
2022-12-20T19:04:45.231Z,100.00
2022-12-20T19:07:15.561Z,100.00
2022-12-20T19:09:45.288Z,100.00
2022-12-20T19:12:14.524Z,100.00
2022-12-20T19:14:44.183Z,100.00
2022-12-20T19:17:13.717Z,100.00
2022-12-20T19:19:43.467Z,100.00
2022-12-20T19:22:12.742Z,100.00
2022-12-20T19:24:42.189Z,100.00
2022-12-20T19:27:11.546Z,100.00
2022-12-20T19:29:41.369Z,100.00
2022-12-20T19:32:10.685Z,100.00
2022-12-20T19:34:40.501Z,100.00
2022-12-20T19:37:09.831Z,100.00
2022-12-20T19:39:39.534Z,100.00
2022-12-20T19:42:25.475Z,100.00
2022-12-20T19:44:40.708Z,100.00
2022-12-20T19:47:10.041Z,100.00
2022-12-20T19:49:39.484Z,100.00
2022-12-20T19:52:09.145Z,100.00
2022-12-20T19:54:39.999Z,100.00
2022-12-20T19:57:10.359Z,100.00
2022-12-20T19:59:39.919Z,100.00
2022-12-20T20:02:11.157Z,100.00
2022-12-20T20:04:40.883Z,100.00
2022-12-20T20:07:10.329Z,100.00
2022-12-20T20:09:39.924Z,100.00
2022-12-20T20:12:09.291Z,100.00
2022-12-20T20:14:38.757Z,100.00
2022-12-20T20:17:09.201Z,100.00
2022-12-20T20:19:38.791Z,100.00
2022-12-20T20:22:10.170Z,100.00
2022-12-20T20:24:39.931Z,100.00
2022-12-20T20:27:09.212Z,100.00
2022-12-20T20:29:38.550Z,100.00
2022-12-20T20:32:07.807Z,100.00
2022-12-20T20:34:37.480Z,100.00
2022-12-20T20:37:06.959Z,100.00
2022-12-20T20:39:36.213Z,100.00
2022-12-20T20:42:07.129Z,100.00
2022-12-20T20:44:36.467Z,100.00
2022-12-20T20:47:05.973Z,99.90
2022-12-20T20:49:35.383Z,99.89
2022-12-20T20:52:04.744Z,99.80
2022-12-20T20:54:34.226Z,99.67
2022-12-20T20:57:03.528Z,99.51
2022-12-20T20:59:33.181Z,99.28
2022-12-20T21:02:02.766Z,99.23
2022-12-20T21:04:32.406Z,99.25
2022-12-20T21:07:01.611Z,99.17
2022-12-20T21:09:32.467Z,99.17
2022-12-20T21:12:01.933Z,99.22
2022-12-20T21:15:10.489Z,99.17
2022-12-20T21:17:02.923Z,99.20
2022-12-20T21:19:32.503Z,99.30
2022-12-20T21:22:01.740Z,99.09
2022-12-20T21:24:31.271Z,99.25
2022-12-20T21:27:00.529Z,99.35
2022-12-20T21:29:29.842Z,99.32
2022-12-20T21:31:59.372Z,99.27
2022-12-20T21:34:29.228Z,99.33
2022-12-20T21:36:58.549Z,99.28
2022-12-20T21:39:27.923Z,99.33
2022-12-20T21:42:01.985Z,99.41
2022-12-20T21:44:28.319Z,99.47
2022-12-20T21:46:57.699Z,99.58
2022-12-20T21:49:27.231Z,99.45
2022-12-20T21:51:57.019Z,99.51
2022-12-20T21:54:26.766Z,99.54
2022-12-20T21:56:56.210Z,99.56
2022-12-20T21:59:26.109Z,99.62
2022-12-20T22:01:55.994Z,99.70
2022-12-20T22:04:26.053Z,99.66
2022-12-20T22:06:55.363Z,99.70
2022-12-20T22:09:25.309Z,99.80
2022-12-20T22:11:54.537Z,99.86
2022-12-20T22:14:23.875Z,99.89
2022-12-20T22:16:54.822Z,99.90
2022-12-20T22:19:24.833Z,99.87
2022-12-20T22:21:58.281Z,99.84
2022-12-20T22:24:25.489Z,99.89
2022-12-20T22:26:54.735Z,99.86
2022-12-20T22:29:24.239Z,99.83
2022-12-20T22:31:53.570Z,99.71
2022-12-20T22:34:23.175Z,99.68
2022-12-20T22:36:52.816Z,99.69
2022-12-20T22:39:22.046Z,99.67
2022-12-20T22:41:51.325Z,99.67
2022-12-20T22:44:20.570Z,99.67
2022-12-20T22:46:49.810Z,99.58
2022-12-20T22:49:19.352Z,99.66
2022-12-20T22:51:59.320Z,99.70
2022-12-20T22:54:20.155Z,99.79
2022-12-20T22:56:49.572Z,99.81
2022-12-20T22:59:18.987Z,99.76
2022-12-20T23:01:48.801Z,99.64
2022-12-20T23:04:18.192Z,99.51
2022-12-20T23:06:47.844Z,99.44
2022-12-20T23:09:17.026Z,99.33
2022-12-20T23:12:04.880Z,99.39
2022-12-20T23:14:52.285Z,99.49
2022-12-20T23:17:21.843Z,99.60
2022-12-20T23:20:09.329Z,99.62
2022-12-20T23:22:38.535Z,99.64
2022-12-20T23:25:16.208Z,99.68
2022-12-20T23:27:48.151Z,99.68
2022-12-20T23:30:20.877Z,99.72
2022-12-20T23:32:50.265Z,99.71
2022-12-20T23:35:21.286Z,99.72
2022-12-20T23:37:50.535Z,99.71
2022-12-20T23:40:19.927Z,99.74
2022-12-20T23:42:49.118Z,99.78
2022-12-20T23:45:18.792Z,99.80
2022-12-20T23:47:47.981Z,99.85
2022-12-20T23:50:17.617Z,99.94
2022-12-20T23:52:46.821Z,99.96
2022-12-20T23:55:16.331Z,99.91
2022-12-20T23:57:45.550Z,99.79
